sensor_id;sensor_type;location;lat;lon;timestamp;P1;durP1;ratioP1;P2;durP2;ratioP2
23302;SDS011;11820;48.738;9.092;2023-01-26T00:01:14;48.10;;;27.40;;
23302;SDS011;11820;48.738;9.092;2023-01-26T00:03:43;46.93;;;28.77;;
23302;SDS011;11820;48.738;9.092;2023-01-26T00:06:10;53.63;;;29.37;;
23302;SDS011;11820;48.738;9.092;2023-01-26T00:08:38;53.67;;;30.93;;
23302;SDS011;11820;48.738;9.092;2023-01-26T00:11:05;52.00;;;29.50;;
23302;SDS011;11820;48.738;9.092;2023-01-26T00:13:33;49.00;;;29.67;;
23302;SDS011;11820;48.738;9.092;2023-01-26T00:16:00;54.23;;;29.67;;
23302;SDS011;11820;48.738;9.092;2023-01-26T00:18:26;53.73;;;30.70;;
23302;SDS011;11820;48.738;9.092;2023-01-26T00:20:59;56.27;;;31.40;;
23302;SDS011;11820;48.738;9.092;2023-01-26T00:23:26;58.10;;;33.70;;
23302;SDS011;11820;48.738;9.092;2023-01-26T00:25:55;56.43;;;30.87;;
23302;SDS011;11820;48.738;9.092;2023-01-26T00:28:21;51.43;;;30.23;;
23302;SDS011;11820;48.738;9.092;2023-01-26T00:30:47;51.67;;;29.70;;
23302;SDS011;11820;48.738;9.092;2023-01-26T00:33:13;52.23;;;30.97;;
23302;SDS011;11820;48.738;9.092;2023-01-26T00:35:40;55.63;;;30.23;;
23302;SDS011;11820;48.738;9.092;2023-01-26T00:38:09;51.53;;;30.50;;
23302;SDS011;11820;48.738;9.092;2023-01-26T00:40:38;57.97;;;30.63;;
23302;SDS011;11820;48.738;9.092;2023-01-26T00:43:04;55.87;;;30.80;;
23302;SDS011;11820;48.738;9.092;2023-01-26T00:45:31;51.97;;;30.37;;
23302;SDS011;11820;48.738;9.092;2023-01-26T00:47:56;58.40;;;30.67;;
23302;SDS011;11820;48.738;9.092;2023-01-26T00:50:24;51.43;;;29.27;;
23302;SDS011;11820;48.738;9.092;2023-01-26T00:52:50;54.97;;;31.23;;
23302;SDS011;11820;48.738;9.092;2023-01-26T00:55:18;54.90;;;30.10;;
23302;SDS011;11820;48.738;9.092;2023-01-26T00:57:44;57.27;;;31.10;;
23302;SDS011;11820;48.738;9.092;2023-01-26T01:00:10;50.60;;;28.33;;
23302;SDS011;11820;48.738;9.092;2023-01-26T01:02:41;52.70;;;29.10;;
23302;SDS011;11820;48.738;9.092;2023-01-26T01:05:08;50.50;;;28.43;;
23302;SDS011;11820;48.738;9.092;2023-01-26T01:07:34;46.77;;;26.87;;
23302;SDS011;11820;48.738;9.092;2023-01-26T01:10:00;52.23;;;28.60;;
23302;SDS011;11820;48.738;9.092;2023-01-26T01:12:26;47.73;;;26.40;;
23302;SDS011;11820;48.738;9.092;2023-01-26T01:14:52;50.47;;;28.27;;
23302;SDS011;11820;48.738;9.092;2023-01-26T01:17:18;47.27;;;28.07;;
23302;SDS011;11820;48.738;9.092;2023-01-26T01:19:44;48.10;;;27.27;;
23302;SDS011;11820;48.738;9.092;2023-01-26T01:22:09;44.00;;;26.50;;
23302;SDS011;11820;48.738;9.092;2023-01-26T01:24:36;43.87;;;25.00;;
23302;SDS011;11820;48.738;9.092;2023-01-26T01:27:02;41.97;;;25.23;;
23302;SDS011;11820;48.738;9.092;2023-01-26T01:29:28;48.27;;;26.70;;
23302;SDS011;11820;48.738;9.092;2023-01-26T01:31:54;45.30;;;27.00;;
23302;SDS011;11820;48.738;9.092;2023-01-26T01:34:20;50.53;;;25.93;;
23302;SDS011;11820;48.738;9.092;2023-01-26T01:36:45;46.80;;;26.00;;
23302;SDS011;11820;48.738;9.092;2023-01-26T01:39:11;45.33;;;26.17;;
23302;SDS011;11820;48.738;9.092;2023-01-26T01:41:37;44.43;;;25.93;;
23302;SDS011;11820;48.738;9.092;2023-01-26T01:44:10;46.10;;;25.40;;
23302;SDS011;11820;48.738;9.092;2023-01-26T01:46:36;42.17;;;23.90;;
23302;SDS011;11820;48.738;9.092;2023-01-26T01:49:19;47.07;;;24.53;;
23302;SDS011;11820;48.738;9.092;2023-01-26T01:51:51;49.13;;;26.57;;
23302;SDS011;11820;48.738;9.092;2023-01-26T01:54:31;40.67;;;24.80;;
23302;SDS011;11820;48.738;9.092;2023-01-26T01:57:05;48.73;;;26.20;;
23302;SDS011;11820;48.738;9.092;2023-01-26T01:59:39;38.80;;;23.43;;
23302;SDS011;11820;48.738;9.092;2023-01-26T02:02:11;42.83;;;24.10;;
23302;SDS011;11820;48.738;9.092;2023-01-26T02:04:38;44.43;;;25.23;;
23302;SDS011;11820;48.738;9.092;2023-01-26T02:07:03;41.67;;;24.20;;
23302;SDS011;11820;48.738;9.092;2023-01-26T02:09:33;41.27;;;22.40;;
23302;SDS011;11820;48.738;9.092;2023-01-26T02:12:22;35.17;;;22.63;;
23302;SDS011;11820;48.738;9.092;2023-01-26T02:14:52;38.10;;;23.10;;
23302;SDS011;11820;48.738;9.092;2023-01-26T02:17:17;42.93;;;23.80;;
23302;SDS011;11820;48.738;9.092;2023-01-26T02:19:50;41.87;;;24.10;;
23302;SDS011;11820;48.738;9.092;2023-01-26T02:23:16;38.93;;;22.33;;
23302;SDS011;11820;48.738;9.092;2023-01-26T02:27:56;40.73;;;22.30;;
23302;SDS011;11820;48.738;9.092;2023-01-26T02:30:22;39.50;;;21.87;;
23302;SDS011;11820;48.738;9.092;2023-01-26T02:32:49;38.73;;;24.13;;
23302;SDS011;11820;48.738;9.092;2023-01-26T02:35:14;37.73;;;22.07;;
23302;SDS011;11820;48.738;9.092;2023-01-26T02:37:39;36.30;;;22.20;;
23302;SDS011;11820;48.738;9.092;2023-01-26T02:40:06;38.67;;;22.60;;
23302;SDS011;11820;48.738;9.092;2023-01-26T02:42:40;33.80;;;20.93;;
23302;SDS011;11820;48.738;9.092;2023-01-26T02:45:08;35.80;;;21.33;;
23302;SDS011;11820;48.738;9.092;2023-01-26T02:47:36;36.63;;;21.43;;
23302;SDS011;11820;48.738;9.092;2023-01-26T02:50:01;33.17;;;20.93;;
23302;SDS011;11820;48.738;9.092;2023-01-26T02:52:27;38.70;;;24.30;;
23302;SDS011;11820;48.738;9.092;2023-01-26T02:54:57;34.87;;;22.17;;
23302;SDS011;11820;48.738;9.092;2023-01-26T02:57:40;36.57;;;21.80;;
23302;SDS011;11820;48.738;9.092;2023-01-26T03:00:07;35.47;;;20.77;;
23302;SDS011;11820;48.738;9.092;2023-01-26T03:02:39;36.03;;;21.20;;
23302;SDS011;11820;48.738;9.092;2023-01-26T03:05:05;34.90;;;20.53;;
23302;SDS011;11820;48.738;9.092;2023-01-26T03:07:30;30.63;;;19.73;;
23302;SDS011;11820;48.738;9.092;2023-01-26T03:09:56;34.03;;;21.17;;
23302;SDS011;11820;48.738;9.092;2023-01-26T03:12:25;33.60;;;19.60;;
23302;SDS011;11820;48.738;9.092;2023-01-26T03:14:51;33.07;;;20.27;;
23302;SDS011;11820;48.738;9.092;2023-01-26T03:17:46;35.43;;;20.60;;
23302;SDS011;11820;48.738;9.092;2023-01-26T03:20:11;27.40;;;17.97;;
23302;SDS011;11820;48.738;9.092;2023-01-26T03:22:56;33.10;;;18.47;;
23302;SDS011;11820;48.738;9.092;2023-01-26T03:25:40;27.53;;;18.13;;
23302;SDS011;11820;48.738;9.092;2023-01-26T03:28:24;27.63;;;16.97;;
23302;SDS011;11820;48.738;9.092;2023-01-26T03:30:50;31.77;;;17.13;;
23302;SDS011;11820;48.738;9.092;2023-01-26T03:33:17;28.43;;;16.43;;
23302;SDS011;11820;48.738;9.092;2023-01-26T03:35:43;30.37;;;17.77;;
23302;SDS011;11820;48.738;9.092;2023-01-26T03:38:09;33.50;;;18.90;;
23302;SDS011;11820;48.738;9.092;2023-01-26T03:40:34;29.00;;;17.77;;
23302;SDS011;11820;48.738;9.092;2023-01-26T03:43:18;27.23;;;16.77;;
23302;SDS011;11820;48.738;9.092;2023-01-26T03:46:03;27.37;;;15.70;;
23302;SDS011;11820;48.738;9.092;2023-01-26T03:48:48;29.97;;;16.97;;
23302;SDS011;11820;48.738;9.092;2023-01-26T03:51:32;29.40;;;15.80;;
23302;SDS011;11820;48.738;9.092;2023-01-26T03:54:16;23.00;;;14.97;;
23302;SDS011;11820;48.738;9.092;2023-01-26T03:56:59;26.70;;;15.27;;
23302;SDS011;11820;48.738;9.092;2023-01-26T03:59:25;27.10;;;15.57;;
23302;SDS011;11820;48.738;9.092;2023-01-26T04:02:16;28.03;;;16.80;;
23302;SDS011;11820;48.738;9.092;2023-01-26T04:05:00;26.73;;;15.63;;
23302;SDS011;11820;48.738;9.092;2023-01-26T04:07:44;26.87;;;15.70;;
23302;SDS011;11820;48.738;9.092;2023-01-26T04:10:28;28.30;;;16.83;;
23302;SDS011;11820;48.738;9.092;2023-01-26T04:12:53;32.23;;;19.13;;
23302;SDS011;11820;48.738;9.092;2023-01-26T04:15:37;26.80;;;16.73;;
23302;SDS011;11820;48.738;9.092;2023-01-26T04:18:21;28.83;;;17.67;;
23302;SDS011;11820;48.738;9.092;2023-01-26T04:21:06;27.97;;;15.60;;
23302;SDS011;11820;48.738;9.092;2023-01-26T04:23:52;26.93;;;16.47;;
23302;SDS011;11820;48.738;9.092;2023-01-26T04:26:20;26.27;;;15.97;;
23302;SDS011;11820;48.738;9.092;2023-01-26T04:28:46;24.37;;;15.63;;
23302;SDS011;11820;48.738;9.092;2023-01-26T04:31:11;25.50;;;16.53;;
23302;SDS011;11820;48.738;9.092;2023-01-26T04:33:36;29.30;;;16.23;;
23302;SDS011;11820;48.738;9.092;2023-01-26T04:36:05;31.30;;;16.97;;
23302;SDS011;11820;48.738;9.092;2023-01-26T04:38:31;26.27;;;16.47;;
23302;SDS011;11820;48.738;9.092;2023-01-26T04:40:57;28.70;;;16.63;;
23302;SDS011;11820;48.738;9.092;2023-01-26T04:43:23;27.37;;;16.80;;
23302;SDS011;11820;48.738;9.092;2023-01-26T04:48:23;23.07;;;15.00;;
23302;SDS011;11820;48.738;9.092;2023-01-26T04:51:05;28.40;;;17.13;;
23302;SDS011;11820;48.738;9.092;2023-01-26T04:53:32;25.00;;;16.27;;
23302;SDS011;11820;48.738;9.092;2023-01-26T04:55:58;26.23;;;15.63;;
23302;SDS011;11820;48.738;9.092;2023-01-26T04:58:23;25.27;;;16.10;;
23302;SDS011;11820;48.738;9.092;2023-01-26T05:00:50;27.77;;;16.30;;
23302;SDS011;11820;48.738;9.092;2023-01-26T05:03:16;26.90;;;15.27;;
23302;SDS011;11820;48.738;9.092;2023-01-26T05:05:41;23.70;;;15.13;;
23302;SDS011;11820;48.738;9.092;2023-01-26T05:08:07;21.87;;;14.83;;
23302;SDS011;11820;48.738;9.092;2023-01-26T05:10:32;21.40;;;13.50;;
23302;SDS011;11820;48.738;9.092;2023-01-26T05:12:58;18.50;;;13.30;;
23302;SDS011;11820;48.738;9.092;2023-01-26T05:15:23;20.43;;;13.90;;
23302;SDS011;11820;48.738;9.092;2023-01-26T05:17:49;19.70;;;11.43;;
23302;SDS011;11820;48.738;9.092;2023-01-26T05:20:14;20.53;;;12.57;;
23302;SDS011;11820;48.738;9.092;2023-01-26T05:22:40;17.50;;;12.57;;
23302;SDS011;11820;48.738;9.092;2023-01-26T05:25:05;18.33;;;12.13;;
23302;SDS011;11820;48.738;9.092;2023-01-26T05:27:31;18.10;;;12.17;;
23302;SDS011;11820;48.738;9.092;2023-01-26T05:29:56;18.63;;;11.90;;
23302;SDS011;11820;48.738;9.092;2023-01-26T05:32:24;19.00;;;12.90;;
23302;SDS011;11820;48.738;9.092;2023-01-26T05:34:51;23.80;;;13.47;;
23302;SDS011;11820;48.738;9.092;2023-01-26T05:37:16;24.80;;;14.67;;
23302;SDS011;11820;48.738;9.092;2023-01-26T05:39:42;21.97;;;14.00;;
23302;SDS011;11820;48.738;9.092;2023-01-26T05:42:07;25.13;;;15.53;;
23302;SDS011;11820;48.738;9.092;2023-01-26T05:44:32;26.90;;;15.70;;
23302;SDS011;11820;48.738;9.092;2023-01-26T05:46:57;26.73;;;15.13;;
23302;SDS011;11820;48.738;9.092;2023-01-26T05:49:23;23.37;;;15.23;;
23302;SDS011;11820;48.738;9.092;2023-01-26T05:51:48;27.23;;;15.57;;
23302;SDS011;11820;48.738;9.092;2023-01-26T05:54:13;30.80;;;16.07;;
23302;SDS011;11820;48.738;9.092;2023-01-26T05:56:39;27.13;;;15.87;;
23302;SDS011;11820;48.738;9.092;2023-01-26T05:59:04;27.33;;;16.60;;
23302;SDS011;11820;48.738;9.092;2023-01-26T06:01:29;27.13;;;16.63;;
23302;SDS011;11820;48.738;9.092;2023-01-26T06:03:55;27.23;;;16.20;;
23302;SDS011;11820;48.738;9.092;2023-01-26T06:06:20;28.13;;;16.07;;
23302;SDS011;11820;48.738;9.092;2023-01-26T06:08:45;29.00;;;16.57;;
23302;SDS011;11820;48.738;9.092;2023-01-26T06:11:10;30.30;;;16.90;;
23302;SDS011;11820;48.738;9.092;2023-01-26T06:13:36;28.53;;;16.70;;
23302;SDS011;11820;48.738;9.092;2023-01-26T06:16:01;23.23;;;15.43;;
23302;SDS011;11820;48.738;9.092;2023-01-26T06:18:26;22.63;;;14.93;;
23302;SDS011;11820;48.738;9.092;2023-01-26T06:20:52;23.90;;;15.17;;
23302;SDS011;11820;48.738;9.092;2023-01-26T06:23:17;24.03;;;15.50;;
23302;SDS011;11820;48.738;9.092;2023-01-26T06:25:42;25.03;;;15.20;;
23302;SDS011;11820;48.738;9.092;2023-01-26T06:28:08;25.70;;;16.43;;
23302;SDS011;11820;48.738;9.092;2023-01-26T06:30:33;20.30;;;13.80;;
23302;SDS011;11820;48.738;9.092;2023-01-26T06:32:59;20.33;;;14.03;;
23302;SDS011;11820;48.738;9.092;2023-01-26T06:35:24;21.40;;;14.57;;
23302;SDS011;11820;48.738;9.092;2023-01-26T06:37:50;24.17;;;14.43;;
23302;SDS011;11820;48.738;9.092;2023-01-26T06:40:17;21.90;;;14.50;;
23302;SDS011;11820;48.738;9.092;2023-01-26T06:42:46;25.23;;;15.13;;
23302;SDS011;11820;48.738;9.092;2023-01-26T06:45:13;20.67;;;13.50;;
23302;SDS011;11820;48.738;9.092;2023-01-26T06:47:42;19.97;;;13.60;;
23302;SDS011;11820;48.738;9.092;2023-01-26T06:50:15;21.20;;;12.53;;
23302;SDS011;11820;48.738;9.092;2023-01-26T06:52:49;23.10;;;13.90;;
23302;SDS011;11820;48.738;9.092;2023-01-26T06:55:26;23.23;;;15.23;;
23302;SDS011;11820;48.738;9.092;2023-01-26T06:58:01;18.77;;;12.53;;
23302;SDS011;11820;48.738;9.092;2023-01-26T07:00:27;22.10;;;13.97;;
23302;SDS011;11820;48.738;9.092;2023-01-26T07:02:52;21.10;;;13.77;;
23302;SDS011;11820;48.738;9.092;2023-01-26T07:05:18;21.67;;;14.37;;
23302;SDS011;11820;48.738;9.092;2023-01-26T07:07:43;20.17;;;13.43;;
23302;SDS011;11820;48.738;9.092;2023-01-26T07:10:10;18.83;;;13.83;;
23302;SDS011;11820;48.738;9.092;2023-01-26T07:12:45;17.43;;;11.93;;
23302;SDS011;11820;48.738;9.092;2023-01-26T07:15:11;20.20;;;12.97;;
23302;SDS011;11820;48.738;9.092;2023-01-26T07:17:38;20.27;;;12.97;;
23302;SDS011;11820;48.738;9.092;2023-01-26T07:20:04;20.40;;;14.00;;
23302;SDS011;11820;48.738;9.092;2023-01-26T07:22:31;20.57;;;13.87;;
23302;SDS011;11820;48.738;9.092;2023-01-26T07:24:56;22.23;;;14.00;;
23302;SDS011;11820;48.738;9.092;2023-01-26T07:27:22;22.87;;;15.03;;
23302;SDS011;11820;48.738;9.092;2023-01-26T07:29:49;23.33;;;14.27;;
23302;SDS011;11820;48.738;9.092;2023-01-26T07:32:15;19.43;;;14.00;;
23302;SDS011;11820;48.738;9.092;2023-01-26T07:34:43;20.13;;;13.33;;
23302;SDS011;11820;48.738;9.092;2023-01-26T07:37:09;18.43;;;12.80;;
23302;SDS011;11820;48.738;9.092;2023-01-26T07:39:35;19.87;;;12.53;;
23302;SDS011;11820;48.738;9.092;2023-01-26T07:42:00;18.50;;;12.57;;
23302;SDS011;11820;48.738;9.092;2023-01-26T07:44:26;21.10;;;12.47;;
23302;SDS011;11820;48.738;9.092;2023-01-26T07:46:51;21.07;;;13.33;;
23302;SDS011;11820;48.738;9.092;2023-01-26T07:49:18;19.57;;;13.13;;
23302;SDS011;11820;48.738;9.092;2023-01-26T07:51:44;20.13;;;13.37;;
23302;SDS011;11820;48.738;9.092;2023-01-26T07:54:10;21.33;;;14.80;;
23302;SDS011;11820;48.738;9.092;2023-01-26T07:56:38;18.97;;;13.10;;
23302;SDS011;11820;48.738;9.092;2023-01-26T07:59:04;20.87;;;13.47;;
23302;SDS011;11820;48.738;9.092;2023-01-26T08:01:30;21.50;;;16.58;;
23302;SDS011;11820;48.738;9.092;2023-01-26T08:03:56;22.67;;;13.77;;
23302;SDS011;11820;48.738;9.092;2023-01-26T08:06:22;20.33;;;13.87;;
23302;SDS011;11820;48.738;9.092;2023-01-26T08:08:48;21.00;;;14.27;;
23302;SDS011;11820;48.738;9.092;2023-01-26T08:11:15;19.40;;;13.70;;
23302;SDS011;11820;48.738;9.092;2023-01-26T08:13:43;19.33;;;13.17;;
23302;SDS011;11820;48.738;9.092;2023-01-26T08:16:09;21.20;;;13.97;;
23302;SDS011;11820;48.738;9.092;2023-01-26T08:18:39;20.73;;;13.97;;
23302;SDS011;11820;48.738;9.092;2023-01-26T08:21:06;24.25;;;17.92;;
23302;SDS011;11820;48.738;9.092;2023-01-26T08:23:32;21.90;;;15.60;;
23302;SDS011;11820;48.738;9.092;2023-01-26T08:26:02;19.33;;;12.63;;
23302;SDS011;11820;48.738;9.092;2023-01-26T08:28:29;19.70;;;13.57;;
23302;SDS011;11820;48.738;9.092;2023-01-26T08:31:07;17.40;;;12.33;;
23302;SDS011;11820;48.738;9.092;2023-01-26T08:33:38;21.00;;;13.43;;
23302;SDS011;11820;48.738;9.092;2023-01-26T08:36:07;20.77;;;16.40;;
23302;SDS011;11820;48.738;9.092;2023-01-26T08:38:34;20.50;;;14.20;;
23302;SDS011;11820;48.738;9.092;2023-01-26T08:41:00;21.77;;;14.03;;
23302;SDS011;11820;48.738;9.092;2023-01-26T08:43:26;21.50;;;14.40;;
23302;SDS011;11820;48.738;9.092;2023-01-26T08:45:52;20.97;;;14.10;;
23302;SDS011;11820;48.738;9.092;2023-01-26T08:48:18;22.10;;;14.03;;
23302;SDS011;11820;48.738;9.092;2023-01-26T08:50:43;18.57;;;12.97;;
23302;SDS011;11820;48.738;9.092;2023-01-26T08:53:09;21.40;;;13.67;;
23302;SDS011;11820;48.738;9.092;2023-01-26T08:55:35;18.07;;;12.50;;
23302;SDS011;11820;48.738;9.092;2023-01-26T08:58:00;19.53;;;13.47;;
23302;SDS011;11820;48.738;9.092;2023-01-26T09:00:26;18.10;;;12.03;;
23302;SDS011;11820;48.738;9.092;2023-01-26T09:02:58;20.60;;;12.80;;
23302;SDS011;11820;48.738;9.092;2023-01-26T09:05:30;19.23;;;12.37;;
23302;SDS011;11820;48.738;9.092;2023-01-26T09:07:56;19.17;;;12.07;;
23302;SDS011;11820;48.738;9.092;2023-01-26T09:10:21;17.80;;;12.60;;
23302;SDS011;11820;48.738;9.092;2023-01-26T09:12:47;16.97;;;12.03;;
23302;SDS011;11820;48.738;9.092;2023-01-26T09:15:12;16.20;;;11.63;;
23302;SDS011;11820;48.738;9.092;2023-01-26T09:17:38;17.97;;;11.30;;
23302;SDS011;11820;48.738;9.092;2023-01-26T09:20:04;18.47;;;11.80;;
23302;SDS011;11820;48.738;9.092;2023-01-26T09:22:31;17.03;;;11.07;;
23302;SDS011;11820;48.738;9.092;2023-01-26T09:24:56;17.03;;;11.87;;
23302;SDS011;11820;48.738;9.092;2023-01-26T09:27:22;18.63;;;12.43;;
23302;SDS011;11820;48.738;9.092;2023-01-26T09:29:48;18.27;;;12.73;;
23302;SDS011;11820;48.738;9.092;2023-01-26T09:32:13;18.13;;;12.30;;
23302;SDS011;11820;48.738;9.092;2023-01-26T09:34:39;18.57;;;12.40;;
23302;SDS011;11820;48.738;9.092;2023-01-26T09:37:07;16.60;;;10.53;;
23302;SDS011;11820;48.738;9.092;2023-01-26T09:39:33;15.50;;;10.40;;
23302;SDS011;11820;48.738;9.092;2023-01-26T09:45:06;14.53;;;10.23;;
23302;SDS011;11820;48.738;9.092;2023-01-26T09:50:18;17.30;;;11.50;;
23302;SDS011;11820;48.738;9.092;2023-01-26T09:52:54;19.30;;;11.90;;
23302;SDS011;11820;48.738;9.092;2023-01-26T09:55:24;18.17;;;11.87;;
23302;SDS011;11820;48.738;9.092;2023-01-26T09:58:04;19.10;;;12.07;;
23302;SDS011;11820;48.738;9.092;2023-01-26T10:00:35;19.50;;;12.03;;
23302;SDS011;11820;48.738;9.092;2023-01-26T10:03:17;19.70;;;12.90;;
23302;SDS011;11820;48.738;9.092;2023-01-26T10:08:56;19.43;;;13.13;;
23302;SDS011;11820;48.738;9.092;2023-01-26T10:11:39;20.30;;;12.70;;
23302;SDS011;11820;48.738;9.092;2023-01-26T10:16:48;22.93;;;14.23;;
23302;SDS011;11820;48.738;9.092;2023-01-26T10:21:52;20.10;;;13.40;;
23302;SDS011;11820;48.738;9.092;2023-01-26T10:24:23;21.33;;;12.60;;
23302;SDS011;11820;48.738;9.092;2023-01-26T10:26:49;15.90;;;10.60;;
23302;SDS011;11820;48.738;9.092;2023-01-26T10:29:17;16.80;;;11.33;;
23302;SDS011;11820;48.738;9.092;2023-01-26T10:31:44;18.13;;;11.40;;
23302;SDS011;11820;48.738;9.092;2023-01-26T10:34:14;17.67;;;11.67;;
23302;SDS011;11820;48.738;9.092;2023-01-26T10:36:45;19.60;;;12.40;;
23302;SDS011;11820;48.738;9.092;2023-01-26T10:39:13;17.57;;;12.70;;
23302;SDS011;11820;48.738;9.092;2023-01-26T10:41:40;18.67;;;11.43;;
23302;SDS011;11820;48.738;9.092;2023-01-26T10:44:22;15.63;;;10.53;;
23302;SDS011;11820;48.738;9.092;2023-01-26T10:47:17;15.13;;;10.13;;
23302;SDS011;11820;48.738;9.092;2023-01-26T10:49:45;18.37;;;10.47;;
23302;SDS011;11820;48.738;9.092;2023-01-26T10:52:20;17.53;;;11.03;;
23302;SDS011;11820;48.738;9.092;2023-01-26T10:55:22;18.27;;;9.93;;
23302;SDS011;11820;48.738;9.092;2023-01-26T10:57:50;13.20;;;9.23;;
23302;SDS011;11820;48.738;9.092;2023-01-26T11:03:04;15.27;;;10.23;;
23302;SDS011;11820;48.738;9.092;2023-01-26T11:05:41;13.67;;;9.40;;
23302;SDS011;11820;48.738;9.092;2023-01-26T11:11:01;14.67;;;9.73;;
23302;SDS011;11820;48.738;9.092;2023-01-26T11:13:28;16.00;;;10.37;;
23302;SDS011;11820;48.738;9.092;2023-01-26T11:16:11;18.93;;;11.10;;
23302;SDS011;11820;48.738;9.092;2023-01-26T11:21:29;16.53;;;10.93;;
23302;SDS011;11820;48.738;9.092;2023-01-26T11:38:05;18.97;;;11.33;;
23302;SDS011;11820;48.738;9.092;2023-01-26T11:41:04;18.17;;;12.27;;
23302;SDS011;11820;48.738;9.092;2023-01-26T11:43:54;20.73;;;12.37;;
23302;SDS011;11820;48.738;9.092;2023-01-26T11:46:28;20.80;;;13.53;;
23302;SDS011;11820;48.738;9.092;2023-01-26T11:49:34;21.67;;;14.27;;
23302;SDS011;11820;48.738;9.092;2023-01-26T11:52:24;25.47;;;12.63;;
23302;SDS011;11820;48.738;9.092;2023-01-26T12:00:42;23.37;;;13.33;;
23302;SDS011;11820;48.738;9.092;2023-01-26T12:05:53;23.87;;;13.87;;
23302;SDS011;11820;48.738;9.092;2023-01-26T12:11:09;25.10;;;14.17;;
23302;SDS011;11820;48.738;9.092;2023-01-26T12:22:04;22.40;;;13.70;;
23302;SDS011;11820;48.738;9.092;2023-01-26T12:24:39;20.67;;;13.13;;
23302;SDS011;11820;48.738;9.092;2023-01-26T12:27:18;19.50;;;12.43;;
23302;SDS011;11820;48.738;9.092;2023-01-26T12:29:59;22.50;;;14.07;;
23302;SDS011;11820;48.738;9.092;2023-01-26T12:32:47;22.40;;;12.00;;
23302;SDS011;11820;48.738;9.092;2023-01-26T12:35:13;21.73;;;12.13;;
23302;SDS011;11820;48.738;9.092;2023-01-26T12:37:51;20.77;;;12.03;;
23302;SDS011;11820;48.738;9.092;2023-01-26T12:45:55;21.83;;;12.80;;
23302;SDS011;11820;48.738;9.092;2023-01-26T12:48:41;22.50;;;12.23;;
23302;SDS011;11820;48.738;9.092;2023-01-26T12:51:32;19.17;;;11.60;;
23302;SDS011;11820;48.738;9.092;2023-01-26T12:56:53;18.60;;;12.00;;
23302;SDS011;11820;48.738;9.092;2023-01-26T13:01:53;22.40;;;11.87;;
23302;SDS011;11820;48.738;9.092;2023-01-26T13:04:19;17.83;;;11.70;;
23302;SDS011;11820;48.738;9.092;2023-01-26T13:06:50;22.37;;;11.97;;
23302;SDS011;11820;48.738;9.092;2023-01-26T13:09:27;17.17;;;9.93;;
23302;SDS011;11820;48.738;9.092;2023-01-26T13:11:56;18.50;;;10.90;;
23302;SDS011;11820;48.738;9.092;2023-01-26T13:16:52;20.47;;;12.90;;
23302;SDS011;11820;48.738;9.092;2023-01-26T13:22:00;22.37;;;12.57;;
23302;SDS011;11820;48.738;9.092;2023-01-26T13:26:51;21.93;;;12.47;;
23302;SDS011;11820;48.738;9.092;2023-01-26T13:31:44;23.33;;;12.60;;
23302;SDS011;11820;48.738;9.092;2023-01-26T13:34:09;21.87;;;12.53;;
23302;SDS011;11820;48.738;9.092;2023-01-26T13:36:38;19.50;;;13.17;;
23302;SDS011;11820;48.738;9.092;2023-01-26T13:39:14;20.97;;;11.97;;
23302;SDS011;11820;48.738;9.092;2023-01-26T13:41:50;18.80;;;11.87;;
23302;SDS011;11820;48.738;9.092;2023-01-26T13:44:18;18.47;;;12.00;;
23302;SDS011;11820;48.738;9.092;2023-01-26T13:46:57;18.50;;;12.33;;
23302;SDS011;11820;48.738;9.092;2023-01-26T13:52:18;20.30;;;12.73;;
23302;SDS011;11820;48.738;9.092;2023-01-26T13:54:49;21.23;;;12.60;;
23302;SDS011;11820;48.738;9.092;2023-01-26T13:57:21;20.37;;;12.90;;
23302;SDS011;11820;48.738;9.092;2023-01-26T13:59:52;19.60;;;13.50;;
23302;SDS011;11820;48.738;9.092;2023-01-26T14:04:54;21.30;;;12.77;;
23302;SDS011;11820;48.738;9.092;2023-01-26T14:07:30;22.70;;;12.70;;
23302;SDS011;11820;48.738;9.092;2023-01-26T14:09:59;22.03;;;12.90;;
23302;SDS011;11820;48.738;9.092;2023-01-26T14:12:27;20.63;;;11.90;;
23302;SDS011;11820;48.738;9.092;2023-01-26T14:15:06;20.43;;;12.90;;
23302;SDS011;11820;48.738;9.092;2023-01-26T14:17:46;20.77;;;12.77;;
23302;SDS011;11820;48.738;9.092;2023-01-26T14:20:20;19.70;;;12.73;;
23302;SDS011;11820;48.738;9.092;2023-01-26T14:23:12;18.00;;;11.13;;
23302;SDS011;11820;48.738;9.092;2023-01-26T14:25:40;17.57;;;12.43;;
23302;SDS011;11820;48.738;9.092;2023-01-26T14:28:16;19.90;;;12.20;;
23302;SDS011;11820;48.738;9.092;2023-01-26T14:30:49;19.63;;;11.83;;
23302;SDS011;11820;48.738;9.092;2023-01-26T14:33:17;19.67;;;11.90;;
23302;SDS011;11820;48.738;9.092;2023-01-26T14:35:55;21.40;;;12.53;;
23302;SDS011;11820;48.738;9.092;2023-01-26T14:38:22;24.03;;;13.63;;
23302;SDS011;11820;48.738;9.092;2023-01-26T14:40:51;22.33;;;13.10;;
23302;SDS011;11820;48.738;9.092;2023-01-26T14:43:19;22.90;;;14.30;;
23302;SDS011;11820;48.738;9.092;2023-01-26T14:48:33;20.70;;;13.83;;
23302;SDS011;11820;48.738;9.092;2023-01-26T14:51:04;23.67;;;14.40;;
23302;SDS011;11820;48.738;9.092;2023-01-26T14:53:37;22.77;;;14.43;;
23302;SDS011;11820;48.738;9.092;2023-01-26T14:56:02;23.07;;;14.03;;
23302;SDS011;11820;48.738;9.092;2023-01-26T14:58:31;23.03;;;14.13;;
23302;SDS011;11820;48.738;9.092;2023-01-26T15:00:58;20.20;;;13.43;;
23302;SDS011;11820;48.738;9.092;2023-01-26T15:03:26;21.70;;;13.00;;
23302;SDS011;11820;48.738;9.092;2023-01-26T15:06:14;19.57;;;12.20;;
23302;SDS011;11820;48.738;9.092;2023-01-26T15:08:41;20.97;;;12.63;;
23302;SDS011;11820;48.738;9.092;2023-01-26T15:11:22;20.33;;;12.60;;
23302;SDS011;11820;48.738;9.092;2023-01-26T15:14:17;21.90;;;12.70;;
23302;SDS011;11820;48.738;9.092;2023-01-26T15:16:50;18.83;;;12.20;;
23302;SDS011;11820;48.738;9.092;2023-01-26T15:19:23;19.67;;;12.63;;
23302;SDS011;11820;48.738;9.092;2023-01-26T15:21:50;18.03;;;10.67;;
23302;SDS011;11820;48.738;9.092;2023-01-26T15:24:15;18.57;;;12.50;;
23302;SDS011;11820;48.738;9.092;2023-01-26T15:26:42;19.70;;;12.07;;
23302;SDS011;11820;48.738;9.092;2023-01-26T15:29:41;17.73;;;12.10;;
23302;SDS011;11820;48.738;9.092;2023-01-26T15:31:59;18.00;;;12.37;;
23302;SDS011;11820;48.738;9.092;2023-01-26T15:34:35;14.27;;;10.47;;
23302;SDS011;11820;48.738;9.092;2023-01-26T15:37:47;17.17;;;10.73;;
23302;SDS011;11820;48.738;9.092;2023-01-26T15:39:55;18.77;;;11.70;;
23302;SDS011;11820;48.738;9.092;2023-01-26T15:42:21;18.73;;;11.63;;
23302;SDS011;11820;48.738;9.092;2023-01-26T15:44:48;18.10;;;11.57;;
23302;SDS011;11820;48.738;9.092;2023-01-26T15:47:14;17.87;;;11.63;;
23302;SDS011;11820;48.738;9.092;2023-01-26T15:49:39;19.80;;;12.33;;
23302;SDS011;11820;48.738;9.092;2023-01-26T15:52:12;18.33;;;11.73;;
23302;SDS011;11820;48.738;9.092;2023-01-26T15:54:39;18.40;;;11.67;;
23302;SDS011;11820;48.738;9.092;2023-01-26T15:57:05;20.20;;;11.90;;
23302;SDS011;11820;48.738;9.092;2023-01-26T15:59:30;20.50;;;11.93;;
23302;SDS011;11820;48.738;9.092;2023-01-26T16:01:56;17.17;;;10.67;;
23302;SDS011;11820;48.738;9.092;2023-01-26T16:04:21;20.47;;;11.73;;
23302;SDS011;11820;48.738;9.092;2023-01-26T16:06:47;17.90;;;11.73;;
23302;SDS011;11820;48.738;9.092;2023-01-26T16:09:12;20.13;;;12.37;;